createdAt,value
2023-02-02T00:01:51.887Z,12.10
2023-02-02T00:04:24.002Z,9.83
2023-02-02T00:06:52.143Z,7.60
2023-02-02T00:09:21.358Z,12.37
2023-02-02T00:11:51.116Z,13.20
2023-02-02T00:14:20.057Z,11.93
2023-02-02T00:16:51.567Z,8.70
2023-02-02T00:19:24.717Z,14.90
2023-02-02T00:21:53.114Z,8.00
2023-02-02T00:24:21.594Z,8.57
2023-02-02T00:26:55.197Z,8.37
2023-02-02T00:29:25.311Z,13.43
2023-02-02T00:31:54.394Z,12.83
2023-02-02T00:34:31.585Z,8.50
2023-02-02T00:37:01.935Z,11.63
2023-02-02T00:39:32.214Z,6.77
2023-02-02T00:42:00.329Z,7.30
2023-02-02T00:44:48.051Z,6.07
2023-02-02T00:47:19.931Z,14.53
2023-02-02T00:49:51.555Z,10.27
2023-02-02T00:52:22.106Z,7.33
2023-02-02T00:54:50.220Z,8.20
2023-02-02T00:57:18.335Z,8.17
2023-02-02T00:59:46.407Z,7.70
2023-02-02T01:02:14.638Z,8.77
2023-02-02T01:04:44.979Z,10.83
2023-02-02T01:07:14.452Z,4.87
2023-02-02T01:09:42.577Z,8.80
2023-02-02T01:12:13.069Z,11.63
2023-02-02T01:14:41.180Z,10.67
2023-02-02T01:17:12.124Z,8.80
2023-02-02T01:19:40.879Z,11.80
2023-02-02T01:22:11.262Z,9.47
2023-02-02T01:24:41.412Z,9.17
2023-02-02T01:27:17.186Z,10.07
2023-02-02T01:29:47.360Z,7.63
2023-02-02T01:32:15.440Z,9.23
2023-02-02T01:34:43.712Z,8.00
2023-02-02T01:37:13.943Z,7.67
2023-02-02T01:39:43.460Z,9.97
2023-02-02T01:42:14.246Z,10.67
2023-02-02T01:45:13.041Z,6.70
2023-02-02T01:47:44.659Z,8.03
2023-02-02T01:50:17.429Z,12.27
2023-02-02T01:52:47.794Z,10.13
2023-02-02T01:55:20.347Z,8.93
2023-02-02T01:57:55.774Z,12.43
2023-02-02T02:00:27.788Z,8.90
2023-02-02T02:03:01.741Z,12.07
2023-02-02T02:05:33.268Z,11.73
2023-02-02T02:08:09.921Z,9.50
2023-02-02T02:10:41.639Z,14.97
2023-02-02T02:13:12.840Z,8.90
2023-02-02T02:16:04.191Z,14.07
2023-02-02T02:18:41.753Z,11.17
2023-02-02T02:21:52.952Z,16.40
2023-02-02T02:25:15.375Z,11.83
2023-02-02T02:28:21.280Z,10.00
2023-02-02T02:31:25.068Z,7.93
2023-02-02T02:33:58.761Z,10.93
2023-02-02T02:36:40.659Z,9.07
2023-02-02T02:39:13.990Z,7.40
2023-02-02T02:41:47.260Z,11.40
2023-02-02T02:44:19.335Z,10.27
2023-02-02T02:46:49.634Z,12.70
2023-02-02T02:49:22.260Z,16.63
2023-02-02T02:51:54.116Z,19.47
2023-02-02T02:54:33.835Z,13.80
2023-02-02T02:57:29.982Z,17.00
2023-02-02T03:00:07.954Z,12.03
2023-02-02T03:02:49.387Z,12.17
2023-02-02T03:05:32.916Z,16.57
2023-02-02T03:08:09.241Z,11.33
2023-02-02T03:10:41.419Z,18.07
2023-02-02T03:13:13.160Z,17.20
2023-02-02T03:15:42.671Z,14.73
2023-02-02T03:18:15.630Z,17.50
2023-02-02T03:20:48.633Z,14.90
2023-02-02T03:23:16.801Z,12.57
2023-02-02T03:25:47.862Z,16.10
2023-02-02T03:28:19.032Z,14.90
2023-02-02T03:30:49.284Z,14.83
2023-02-02T03:33:18.605Z,19.87
2023-02-02T03:35:48.513Z,15.23
2023-02-02T03:38:16.635Z,12.03
2023-02-02T03:40:44.779Z,9.80
2023-02-02T03:43:12.871Z,14.77
2023-02-02T03:45:43.252Z,16.13
2023-02-02T03:48:13.419Z,9.23
2023-02-02T03:50:43.851Z,8.47
2023-02-02T03:53:13.358Z,15.03
2023-02-02T03:55:43.558Z,19.57
2023-02-02T03:58:13.746Z,12.60
2023-02-02T04:00:44.139Z,10.57
2023-02-02T04:03:12.231Z,12.77
2023-02-02T04:05:40.334Z,15.83
2023-02-02T04:08:08.495Z,15.97
2023-02-02T04:10:42.484Z,11.10
2023-02-02T04:13:10.553Z,13.23
2023-02-02T04:15:38.650Z,8.63
2023-02-02T04:18:06.842Z,23.00
2023-02-02T04:20:34.967Z,13.87
2023-02-02T04:23:03.073Z,10.80
2023-02-02T04:25:31.177Z,14.03
2023-02-02T04:28:03.342Z,16.63
2023-02-02T04:30:31.553Z,13.87
2023-02-02T04:33:01.839Z,13.77
2023-02-02T04:35:32.951Z,11.90
2023-02-02T04:38:03.563Z,12.23
2023-02-02T04:40:33.984Z,10.03
2023-02-02T04:43:05.502Z,14.00
2023-02-02T04:45:33.677Z,14.17
2023-02-02T04:48:05.506Z,13.83
2023-02-02T04:50:33.581Z,8.57
2023-02-02T04:53:04.464Z,18.57
2023-02-02T04:55:38.771Z,14.00
2023-02-02T04:58:08.495Z,9.93
2023-02-02T05:00:36.769Z,10.50
2023-02-02T05:03:05.038Z,10.90
2023-02-02T05:05:33.267Z,13.97
2023-02-02T05:08:01.414Z,17.53
2023-02-02T05:10:29.501Z,15.00
2023-02-02T05:12:57.863Z,14.07
2023-02-02T05:15:29.434Z,11.97
2023-02-02T05:17:57.566Z,13.10
2023-02-02T05:20:28.036Z,34.67
2023-02-02T05:22:56.198Z,33.93
2023-02-02T05:25:24.596Z,15.00
2023-02-02T05:27:52.856Z,27.50
2023-02-02T05:30:23.268Z,21.37
2023-02-02T05:32:52.726Z,21.50
2023-02-02T05:35:20.922Z,17.50
2023-02-02T05:37:49.051Z,14.87
2023-02-02T05:40:17.753Z,15.57
2023-02-02T05:42:49.209Z,22.57
2023-02-02T05:45:17.539Z,12.93
2023-02-02T05:47:47.745Z,17.37
2023-02-02T05:50:19.840Z,10.53
2023-02-02T05:52:49.335Z,15.30
2023-02-02T05:55:18.355Z,10.27
2023-02-02T05:57:46.575Z,8.17
2023-02-02T06:00:15.684Z,10.77
2023-02-02T06:02:46.170Z,5.53
2023-02-02T06:05:16.788Z,9.47
2023-02-02T06:07:48.654Z,8.90
2023-02-02T06:10:19.466Z,12.93
2023-02-02T06:12:47.604Z,9.60
2023-02-02T06:15:18.175Z,6.43
2023-02-02T06:17:46.303Z,6.20
2023-02-02T06:20:14.804Z,7.70
2023-02-02T06:22:43.885Z,9.93
2023-02-02T06:25:13.309Z,7.93
2023-02-02T06:27:45.241Z,5.83
2023-02-02T06:30:14.588Z,6.10
2023-02-02T06:32:42.786Z,4.77
2023-02-02T06:35:13.192Z,7.57
2023-02-02T06:37:42.133Z,5.37
2023-02-02T06:40:14.375Z,8.17
2023-02-02T06:42:42.483Z,5.57
2023-02-02T06:45:12.104Z,5.70
2023-02-02T06:47:42.419Z,5.23
2023-02-02T06:50:11.994Z,6.87
2023-02-02T06:52:48.803Z,5.77
2023-02-02T06:55:19.077Z,10.00
2023-02-02T06:57:47.421Z,5.90
2023-02-02T07:00:16.473Z,4.73
2023-02-02T07:02:47.091Z,3.57
2023-02-02T07:05:15.273Z,4.57
2023-02-02T07:07:43.380Z,5.03
2023-02-02T07:11:13.182Z,6.73
2023-02-02T07:13:01.762Z,6.17
2023-02-02T07:15:32.376Z,7.60
2023-02-02T07:18:03.102Z,5.97
2023-02-02T07:20:31.288Z,4.73
2023-02-02T07:22:59.464Z,1.73
2023-02-02T07:25:29.593Z,3.80
2023-02-02T07:27:57.672Z,4.63
2023-02-02T07:30:30.096Z,5.87
2023-02-02T07:32:58.382Z,4.30
2023-02-02T07:35:28.592Z,3.67
2023-02-02T07:37:58.982Z,5.20
2023-02-02T07:40:29.451Z,4.17
2023-02-02T07:43:00.595Z,4.73
2023-02-02T07:45:30.134Z,8.60
2023-02-02T07:47:58.505Z,4.67
2023-02-02T07:50:27.529Z,4.83
2023-02-02T07:52:55.743Z,4.47
2023-02-02T07:55:24.263Z,4.97
2023-02-02T07:57:55.322Z,4.20
2023-02-02T08:00:24.885Z,3.27
2023-02-02T08:02:54.779Z,5.00
2023-02-02T08:05:23.376Z,3.07
2023-02-02T08:07:51.567Z,2.20
2023-02-02T08:10:19.822Z,2.20
2023-02-02T08:12:47.889Z,7.80
2023-02-02T08:15:18.333Z,3.93
2023-02-02T08:17:49.850Z,4.17
2023-02-02T08:20:19.742Z,3.50
2023-02-02T08:22:47.828Z,2.87
2023-02-02T08:25:18.107Z,4.30
2023-02-02T08:27:48.518Z,3.00
2023-02-02T08:30:16.708Z,3.60
2023-02-02T08:32:44.852Z,4.67
2023-02-02T08:35:13.117Z,5.13
2023-02-02T08:37:42.577Z,3.40
2023-02-02T08:40:12.125Z,3.13
2023-02-02T08:42:43.430Z,5.53
2023-02-02T08:46:03.249Z,5.93
2023-02-02T08:48:11.292Z,3.37
2023-02-02T08:50:40.068Z,2.77
2023-02-02T08:53:09.573Z,4.10
2023-02-02T08:55:37.682Z,3.67
2023-02-02T08:58:08.034Z,6.17
2023-02-02T09:00:36.110Z,4.13
2023-02-02T09:03:06.223Z,8.03
2023-02-02T09:05:34.346Z,8.07
2023-02-02T09:08:04.998Z,7.70
2023-02-02T09:10:36.497Z,8.33
2023-02-02T09:13:05.197Z,6.10
2023-02-02T09:15:35.573Z,4.40
2023-02-02T09:18:03.637Z,4.40
2023-02-02T09:20:31.819Z,7.23
2023-02-02T09:22:59.946Z,5.07
2023-02-02T09:25:28.363Z,3.93
2023-02-02T09:27:57.827Z,4.13
2023-02-02T09:30:25.957Z,7.20
2023-02-02T09:32:56.192Z,4.83
2023-02-02T09:35:24.627Z,5.20
2023-02-02T09:37:55.000Z,8.33
2023-02-02T09:40:27.894Z,4.73
2023-02-02T09:43:04.903Z,4.80
2023-02-02T09:45:46.465Z,6.67
2023-02-02T09:48:24.424Z,5.00
2023-02-02T09:50:56.639Z,4.80
2023-02-02T09:53:54.604Z,3.83
2023-02-02T09:56:28.076Z,6.63
2023-02-02T09:59:10.202Z,7.97
2023-02-02T10:01:51.056Z,5.07
2023-02-02T10:04:23.300Z,6.93
2023-02-02T10:06:54.790Z,7.40
2023-02-02T10:09:35.128Z,8.00
2023-02-02T10:12:16.224Z,5.33
2023-02-02T10:14:55.038Z,6.27
2023-02-02T10:17:38.593Z,3.80
2023-02-02T10:20:24.166Z,5.80
2023-02-02T10:22:52.879Z,4.63
2023-02-02T10:25:26.993Z,4.43
2023-02-02T10:28:04.954Z,5.27
2023-02-02T10:30:45.630Z,6.60
2023-02-02T10:33:21.711Z,6.37
2023-02-02T10:35:59.170Z,7.03
2023-02-02T10:38:38.253Z,5.07
2023-02-02T10:41:18.446Z,8.50
2023-02-02T10:44:14.540Z,4.90
2023-02-02T10:46:50.136Z,5.60
2023-02-02T10:49:27.102Z,5.73
2023-02-02T10:52:01.517Z,5.63
2023-02-02T10:54:56.637Z,7.93
2023-02-02T10:57:38.699Z,6.37
2023-02-02T11:00:16.917Z,6.60
2023-02-02T11:02:47.939Z,3.70
2023-02-02T11:05:38.535Z,3.33
2023-02-02T11:08:17.232Z,4.67
2023-02-02T11:10:46.896Z,5.90
2023-02-02T11:13:30.272Z,4.90
2023-02-02T11:16:41.593Z,6.83
2023-02-02T11:19:29.696Z,6.07
2023-02-02T11:21:59.663Z,4.50
2023-02-02T11:24:36.476Z,4.50
2023-02-02T11:27:09.428Z,5.17
2023-02-02T11:29:46.864Z,6.57
2023-02-02T11:32:21.328Z,6.60
2023-02-02T11:35:05.655Z,2.57
2023-02-02T11:37:35.754Z,5.40
2023-02-02T11:40:26.278Z,7.27
2023-02-02T11:42:55.442Z,5.67
2023-02-02T11:45:33.449Z,3.60
2023-02-02T11:48:08.638Z,3.60
2023-02-02T11:50:38.234Z,3.20
2023-02-02T11:53:21.202Z,3.77
2023-02-02T11:55:49.491Z,6.77
2023-02-02T11:58:28.505Z,5.17
2023-02-02T12:00:59.840Z,9.50
2023-02-02T12:03:33.487Z,8.87
2023-02-02T12:06:20.741Z,4.03
2023-02-02T12:08:56.445Z,2.47
2023-02-02T12:11:40.064Z,4.83
2023-02-02T12:14:31.534Z,6.13
2023-02-02T12:17:17.019Z,4.90
2023-02-02T12:20:00.232Z,3.33
2023-02-02T12:22:47.140Z,3.60
2023-02-02T12:25:35.613Z,3.73
2023-02-02T12:28:16.329Z,4.03
2023-02-02T12:30:53.588Z,4.40
2023-02-02T12:33:29.787Z,4.80
2023-02-02T12:36:12.878Z,2.57
2023-02-02T12:39:10.106Z,6.83
2023-02-02T12:41:56.853Z,4.63
2023-02-02T12:44:33.508Z,4.47
2023-02-02T12:47:18.443Z,9.60
2023-02-02T12:50:09.220Z,8.10
2023-02-02T12:52:59.367Z,5.57
2023-02-02T12:55:38.764Z,5.97
2023-02-02T12:58:14.449Z,6.13
2023-02-02T13:01:07.314Z,10.03
2023-02-02T13:03:53.445Z,6.40
2023-02-02T13:06:48.439Z,4.53
2023-02-02T13:09:22.777Z,7.23
2023-02-02T13:11:55.926Z,5.20
2023-02-02T13:14:31.180Z,7.63
2023-02-02T13:17:06.775Z,4.17
2023-02-02T13:19:41.280Z,6.43
2023-02-02T13:22:16.565Z,4.13
2023-02-02T13:24:48.816Z,6.03
2023-02-02T13:27:20.791Z,5.60
2023-02-02T13:29:56.789Z,3.90
2023-02-02T13:32:30.193Z,5.23
2023-02-02T13:35:04.206Z,5.30
2023-02-02T13:37:38.671Z,9.27
2023-02-02T13:40:29.324Z,6.90
2023-02-02T13:43:06.944Z,11.20
2023-02-02T13:45:52.870Z,7.83
2023-02-02T13:48:33.946Z,10.63
2023-02-02T13:51:32.891Z,7.43
2023-02-02T13:54:44.818Z,6.00
2023-02-02T13:57:29.328Z,6.33
2023-02-02T14:00:06.051Z,5.80
2023-02-02T14:02:42.801Z,7.70
2023-02-02T14:05:25.342Z,3.30
2023-02-02T14:08:01.986Z,4.80
2023-02-02T14:10:36.999Z,5.60
2023-02-02T14:13:36.197Z,8.80
2023-02-02T14:16:20.288Z,6.97
2023-02-02T14:18:57.069Z,4.33
2023-02-02T14:22:14.248Z,6.60
2023-02-02T14:24:46.136Z,7.53
2023-02-02T14:27:56.125Z,4.27
2023-02-02T14:30:28.360Z,5.57
2023-02-02T14:33:26.831Z,6.30
2023-02-02T14:36:02.729Z,4.93
2023-02-02T14:39:04.240Z,5.27
2023-02-02T14:42:00.990Z,5.17
2023-02-02T14:44:31.434Z,5.30
2023-02-02T14:46:59.600Z,7.63
2023-02-02T14:49:36.449Z,4.07
2023-02-02T14:52:05.400Z,4.97
2023-02-02T14:54:41.082Z,5.60
2023-02-02T14:57:26.516Z,5.73
2023-02-02T14:59:56.257Z,4.20
2023-02-02T15:02:32.673Z,5.53
2023-02-02T15:05:43.956Z,6.57
2023-02-02T15:08:27.351Z,5.87
2023-02-02T15:11:21.364Z,5.30
2023-02-02T15:13:55.966Z,6.73
2023-02-02T15:16:28.980Z,7.20
2023-02-02T15:19:07.813Z,6.77
2023-02-02T15:21:42.480Z,9.80
2023-02-02T15:24:27.081Z,11.47
2023-02-02T15:27:00.637Z,10.43
2023-02-02T15:29:43.705Z,11.20
2023-02-02T15:32:19.343Z,13.00
2023-02-02T15:34:51.430Z,10.97
2023-02-02T15:37:24.048Z,11.17
2023-02-02T15:39:58.294Z,10.23
2023-02-02T15:42:55.091Z,10.57
2023-02-02T15:45:43.381Z,9.57
2023-02-02T15:48:21.037Z,7.90
2023-02-02T15:50:54.761Z,9.03
2023-02-02T15:53:28.163Z,10.43
2023-02-02T15:55:57.664Z,10.53
2023-02-02T15:58:31.589Z,11.10
2023-02-02T16:01:05.725Z,9.00
2023-02-02T16:03:42.982Z,9.87
2023-02-02T16:06:11.555Z,10.43
2023-02-02T16:08:41.957Z,8.13
2023-02-02T16:11:12.734Z,9.67
2023-02-02T16:13:45.955Z,10.10
2023-02-02T16:16:26.555Z,8.30
2023-02-02T16:19:04.614Z,15.33
2023-02-02T16:21:35.234Z,13.10
2023-02-02T16:24:06.717Z,9.67
2023-02-02T16:26:37.571Z,8.30
2023-02-02T16:29:06.622Z,13.53
2023-02-02T16:31:37.330Z,10.40
2023-02-02T16:34:05.705Z,9.90
2023-02-02T16:36:36.381Z,12.43
2023-02-02T16:39:16.984Z,10.10
2023-02-02T16:41:49.234Z,13.17
2023-02-02T16:44:38.414Z,9.23
2023-02-02T16:47:08.140Z,10.80
2023-02-02T16:49:37.763Z,10.57
2023-02-02T16:52:12.598Z,11.30
2023-02-02T16:54:45.500Z,13.67
2023-02-02T16:57:19.273Z,13.30
2023-02-02T16:59:52.514Z,12.60
2023-02-02T17:02:27.049Z,13.83
2023-02-02T17:05:00.623Z,15.63
2023-02-02T17:07:30.483Z,12.93
2023-02-02T17:10:20.629Z,14.87
2023-02-02T17:12:48.776Z,12.87
2023-02-02T17:15:32.717Z,11.73
2023-02-02T17:21:57.714Z,14.13
2023-02-02T17:24:29.177Z,12.80
2023-02-02T17:26:58.769Z,15.87
2023-02-02T17:29:29.575Z,12.83
2023-02-02T17:31:57.727Z,14.30
2023-02-02T17:34:30.689Z,18.33
2023-02-02T17:37:00.179Z,16.57
2023-02-02T17:39:28.384Z,16.73
2023-02-02T17:42:00.356Z,18.23
2023-02-02T17:44:28.537Z,23.53
2023-02-02T17:46:56.626Z,14.40
2023-02-02T17:49:26.823Z,15.67
2023-02-02T17:51:54.997Z,16.67
2023-02-02T17:54:25.395Z,15.97
2023-02-02T17:56:53.511Z,15.57
2023-02-02T17:59:23.109Z,16.17
2023-02-02T18:01:54.981Z,16.47
2023-02-02T18:04:24.668Z,16.33
2023-02-02T18:06:52.821Z,16.30
2023-02-02T18:09:22.985Z,20.80
2023-02-02T18:11:51.133Z,19.27
2023-02-02T18:14:19.197Z,21.83
2023-02-02T18:16:50.996Z,18.73
2023-02-02T18:19:19.085Z,17.83
2023-02-02T18:21:49.702Z,21.17
2023-02-02T18:24:17.823Z,20.50
2023-02-02T18:26:48.080Z,22.20
2023-02-02T18:29:16.201Z,14.80
2023-02-02T18:31:44.587Z,18.23
2023-02-02T18:34:14.178Z,14.67
2023-02-02T18:36:42.467Z,16.80
2023-02-02T18:39:10.627Z,19.30
2023-02-02T18:41:38.817Z,18.40
2023-02-02T18:44:06.998Z,23.90
2023-02-02T18:46:37.203Z,17.37
2023-02-02T18:49:05.377Z,15.73
2023-02-02T18:51:37.248Z,20.40
2023-02-02T18:54:05.761Z,15.50
2023-02-02T18:56:36.047Z,13.63
2023-02-02T18:59:06.968Z,15.33
2023-02-02T19:01:37.609Z,16.33
2023-02-02T19:04:05.989Z,16.13
2023-02-02T19:06:51.823Z,15.80
2023-02-02T19:09:22.275Z,18.00
2023-02-02T19:11:54.810Z,17.57
2023-02-02T19:14:29.260Z,19.73
2023-02-02T19:17:03.728Z,19.23
2023-02-02T19:19:34.641Z,20.73
2023-02-02T19:22:16.746Z,20.77
2023-02-02T19:24:46.288Z,21.77
2023-02-02T19:27:18.368Z,20.03
2023-02-02T19:29:47.785Z,19.50
2023-02-02T19:32:21.720Z,25.93
2023-02-02T19:34:54.832Z,22.70
2023-02-02T19:37:25.618Z,25.17
2023-02-02T19:40:03.274Z,24.63
2023-02-02T19:42:33.973Z,23.87
2023-02-02T19:45:21.448Z,26.87
2023-02-02T19:47:51.107Z,26.43
2023-02-02T19:50:26.261Z,22.87
2023-02-02T19:52:57.556Z,21.87
2023-02-02T19:55:29.850Z,19.63
2023-02-02T19:58:01.725Z,21.77
2023-02-02T20:00:33.634Z,22.10
2023-02-02T20:03:04.962Z,26.47
2023-02-02T20:05:36.611Z,23.27
2023-02-02T20:08:13.636Z,24.63
2023-02-02T20:10:46.218Z,23.37
2023-02-02T20:13:19.681Z,23.77
2023-02-02T20:15:51.877Z,26.37
2023-02-02T20:18:25.177Z,31.90
2023-02-02T20:20:55.659Z,28.07
2023-02-02T20:23:32.895Z,29.50
2023-02-02T20:26:04.958Z,28.73
2023-02-02T20:28:41.513Z,31.87
2023-02-02T20:31:12.249Z,26.97
2023-02-02T20:33:43.312Z,33.47
2023-02-02T20:36:32.235Z,31.83
2023-02-02T20:39:07.942Z,30.20
2023-02-02T20:41:39.724Z,34.33
2023-02-02T20:44:07.901Z,32.27
2023-02-02T20:46:35.994Z,31.53
2023-02-02T20:49:05.590Z,31.80
2023-02-02T20:51:38.819Z,34.33
2023-02-02T20:54:09.603Z,34.80
2023-02-02T20:56:39.402Z,31.23
2023-02-02T20:59:09.690Z,33.90
2023-02-02T21:01:37.807Z,33.63
2023-02-02T21:04:08.527Z,30.80
2023-02-02T21:06:37.155Z,30.33
2023-02-02T21:09:06.505Z,31.57
2023-02-02T21:11:34.652Z,33.33
2023-02-02T21:14:05.458Z,32.73
2023-02-02T21:16:36.277Z,33.67
2023-02-02T21:19:04.504Z,28.93
2023-02-02T21:21:32.712Z,30.60
2023-02-02T21:24:01.121Z,26.83
2023-02-02T21:26:30.714Z,24.90
2023-02-02T21:29:03.534Z,34.63
2023-02-02T21:31:35.392Z,26.27
2023-02-02T21:34:05.782Z,30.73
2023-02-02T21:36:36.319Z,25.17
2023-02-02T21:39:15.489Z,29.13
2023-02-02T21:41:43.781Z,28.00
2023-02-02T21:44:18.246Z,26.20
2023-02-02T21:46:48.733Z,26.33
2023-02-02T21:49:22.788Z,25.47
2023-02-02T21:51:55.758Z,34.40
2023-02-02T21:54:27.728Z,23.70
2023-02-02T21:56:58.159Z,26.57
2023-02-02T21:59:36.712Z,28.03
2023-02-02T22:02:35.723Z,25.63
2023-02-02T22:05:12.325Z,21.40
2023-02-02T22:07:45.923Z,23.33
2023-02-02T22:10:37.580Z,22.63
2023-02-02T22:13:16.954Z,25.77
2023-02-02T22:15:51.080Z,19.47
2023-02-02T22:18:21.655Z,18.97
2023-02-02T22:20:54.457Z,22.07
2023-02-02T22:23:24.654Z,22.47
2023-02-02T22:25:55.229Z,21.03
2023-02-02T22:28:28.234Z,19.80
2023-02-02T22:30:58.577Z,23.77
2023-02-02T22:33:27.012Z,21.60
2023-02-02T22:35:57.739Z,21.80
2023-02-02T22:38:26.850Z,21.27
2023-02-02T22:40:57.113Z,17.13
2023-02-02T22:43:25.268Z,17.93
2023-02-02T22:45:53.507Z,22.60
2023-02-02T22:48:23.012Z,23.63
2023-02-02T22:50:51.119Z,20.60
2023-02-02T22:53:21.287Z,17.67
2023-02-02T22:55:56.532Z,18.90
2023-02-02T22:58:27.010Z,19.83
2023-02-02T23:00:55.956Z,21.33
2023-02-02T23:03:25.569Z,17.23
2023-02-02T23:05:56.100Z,17.20
2023-02-02T23:08:26.795Z,17.70
2023-02-02T23:10:57.199Z,18.03
2023-02-02T23:13:25.336Z,17.70
2023-02-02T23:15:53.536Z,21.77
2023-02-02T23:18:22.062Z,21.67
2023-02-02T23:20:51.678Z,24.20
2023-02-02T23:23:19.750Z,14.43
2023-02-02T23:25:50.154Z,18.77
2023-02-02T23:28:18.279Z,17.13
2023-02-02T23:30:46.425Z,21.87
2023-02-02T23:33:14.635Z,18.63
2023-02-02T23:35:42.756Z,20.87
2023-02-02T23:38:15.180Z,17.57
2023-02-02T23:40:43.291Z,20.83
2023-02-02T23:43:13.726Z,20.77
2023-02-02T23:45:42.120Z,20.70
2023-02-02T23:48:10.883Z,16.73
2023-02-02T23:50:39.025Z,22.67
2023-02-02T23:53:08.227Z,18.73
2023-02-02T23:55:38.391Z,17.97
2023-02-02T23:58:06.664Z,19.70
